sensor_id;sensor_type;location;lat;lon;timestamp;P1;durP1;ratioP1;P2;durP2;ratioP2
6463;SDS011;3265;42.694;23.282;2024-01-27T00:01:14;15.07;;;6.47;;
6463;SDS011;3265;42.694;23.282;2024-01-27T00:03:41;14.50;;;5.73;;
6463;SDS011;3265;42.694;23.282;2024-01-27T00:06:08;13.97;;;5.80;;
6463;SDS011;3265;42.694;23.282;2024-01-27T00:08:35;9.80;;;5.37;;
6463;SDS011;3265;42.694;23.282;2024-01-27T00:11:02;11.03;;;5.37;;
6463;SDS011;3265;42.694;23.282;2024-01-27T00:13:32;11.50;;;6.43;;
6463;SDS011;3265;42.694;23.282;2024-01-27T00:15:58;11.20;;;6.40;;
6463;SDS011;3265;42.694;23.282;2024-01-27T00:18:27;14.00;;;6.63;;
6463;SDS011;3265;42.694;23.282;2024-01-27T00:20:54;11.77;;;5.40;;
6463;SDS011;3265;42.694;23.282;2024-01-27T00:23:21;8.17;;;4.43;;
6463;SDS011;3265;42.694;23.282;2024-01-27T00:25:47;8.70;;;5.27;;
6463;SDS011;3265;42.694;23.282;2024-01-27T00:28:14;14.23;;;4.70;;
6463;SDS011;3265;42.694;23.282;2024-01-27T00:30:41;10.33;;;5.27;;
6463;SDS011;3265;42.694;23.282;2024-01-27T00:33:11;15.57;;;5.33;;
6463;SDS011;3265;42.694;23.282;2024-01-27T00:35:40;9.57;;;5.00;;
6463;SDS011;3265;42.694;23.282;2024-01-27T00:38:07;15.57;;;7.37;;
6463;SDS011;3265;42.694;23.282;2024-01-27T00:40:48;11.40;;;6.73;;
6463;SDS011;3265;42.694;23.282;2024-01-27T00:43:16;15.77;;;6.63;;
6463;SDS011;3265;42.694;23.282;2024-01-27T00:45:43;12.93;;;5.83;;
6463;SDS011;3265;42.694;23.282;2024-01-27T00:48:10;14.27;;;5.53;;
6463;SDS011;3265;42.694;23.282;2024-01-27T00:50:37;12.40;;;5.23;;
6463;SDS011;3265;42.694;23.282;2024-01-27T00:53:05;13.63;;;6.23;;
6463;SDS011;3265;42.694;23.282;2024-01-27T00:55:32;12.47;;;6.10;;
6463;SDS011;3265;42.694;23.282;2024-01-27T00:58:02;13.23;;;5.50;;
6463;SDS011;3265;42.694;23.282;2024-01-27T01:00:30;14.60;;;6.17;;
6463;SDS011;3265;42.694;23.282;2024-01-27T01:02:57;15.50;;;5.60;;
6463;SDS011;3265;42.694;23.282;2024-01-27T01:05:22;10.53;;;4.63;;
6463;SDS011;3265;42.694;23.282;2024-01-27T01:07:49;8.77;;;4.13;;
6463;SDS011;3265;42.694;23.282;2024-01-27T01:10:18;7.63;;;4.53;;
6463;SDS011;3265;42.694;23.282;2024-01-27T01:12:45;11.30;;;4.33;;
6463;SDS011;3265;42.694;23.282;2024-01-27T01:15:11;11.27;;;5.00;;
6463;SDS011;3265;42.694;23.282;2024-01-27T01:17:41;9.17;;;4.23;;
6463;SDS011;3265;42.694;23.282;2024-01-27T01:20:16;8.50;;;5.00;;
6463;SDS011;3265;42.694;23.282;2024-01-27T01:25:08;9.55;;;4.35;;
6463;SDS011;3265;42.694;23.282;2024-01-27T01:27:37;13.13;;;4.13;;
6463;SDS011;3265;42.694;23.282;2024-01-27T01:30:04;10.27;;;4.47;;
6463;SDS011;3265;42.694;23.282;2024-01-27T01:32:31;9.80;;;4.10;;
6463;SDS011;3265;42.694;23.282;2024-01-27T01:34:58;10.63;;;4.47;;
6463;SDS011;3265;42.694;23.282;2024-01-27T01:37:25;9.63;;;4.47;;
6463;SDS011;3265;42.694;23.282;2024-01-27T01:39:53;9.97;;;3.30;;
6463;SDS011;3265;42.694;23.282;2024-01-27T01:42:20;10.50;;;3.87;;
6463;SDS011;3265;42.694;23.282;2024-01-27T01:44:51;7.13;;;4.00;;
6463;SDS011;3265;42.694;23.282;2024-01-27T01:47:18;7.57;;;4.10;;
6463;SDS011;3265;42.694;23.282;2024-01-27T01:49:45;9.30;;;4.17;;
6463;SDS011;3265;42.694;23.282;2024-01-27T01:52:11;8.50;;;3.80;;
6463;SDS011;3265;42.694;23.282;2024-01-27T01:54:44;9.87;;;3.73;;
6463;SDS011;3265;42.694;23.282;2024-01-27T01:57:13;8.50;;;4.13;;
6463;SDS011;3265;42.694;23.282;2024-01-27T01:59:40;10.10;;;4.73;;
6463;SDS011;3265;42.694;23.282;2024-01-27T02:02:09;8.07;;;3.87;;
6463;SDS011;3265;42.694;23.282;2024-01-27T02:04:46;13.70;;;4.47;;
6463;SDS011;3265;42.694;23.282;2024-01-27T02:07:13;8.27;;;4.40;;
6463;SDS011;3265;42.694;23.282;2024-01-27T02:09:39;12.23;;;4.90;;
6463;SDS011;3265;42.694;23.282;2024-01-27T02:12:06;9.63;;;4.27;;
6463;SDS011;3265;42.694;23.282;2024-01-27T02:14:33;8.60;;;4.13;;
6463;SDS011;3265;42.694;23.282;2024-01-27T02:17:00;8.10;;;4.00;;
6463;SDS011;3265;42.694;23.282;2024-01-27T02:19:28;10.17;;;3.70;;
6463;SDS011;3265;42.694;23.282;2024-01-27T02:21:55;9.50;;;4.07;;
6463;SDS011;3265;42.694;23.282;2024-01-27T02:24:24;7.13;;;3.63;;
6463;SDS011;3265;42.694;23.282;2024-01-27T02:26:52;7.20;;;3.53;;
6463;SDS011;3265;42.694;23.282;2024-01-27T02:29:19;6.40;;;3.00;;
6463;SDS011;3265;42.694;23.282;2024-01-27T02:31:46;9.03;;;3.03;;
6463;SDS011;3265;42.694;23.282;2024-01-27T02:34:13;6.43;;;3.00;;
6463;SDS011;3265;42.694;23.282;2024-01-27T02:36:40;6.93;;;3.23;;
6463;SDS011;3265;42.694;23.282;2024-01-27T02:39:08;7.17;;;3.30;;
6463;SDS011;3265;42.694;23.282;2024-01-27T02:41:36;8.50;;;3.13;;
6463;SDS011;3265;42.694;23.282;2024-01-27T02:44:04;6.93;;;3.17;;
6463;SDS011;3265;42.694;23.282;2024-01-27T02:46:31;5.93;;;3.00;;
6463;SDS011;3265;42.694;23.282;2024-01-27T02:48:58;5.23;;;3.00;;
6463;SDS011;3265;42.694;23.282;2024-01-27T02:51:25;10.00;;;3.37;;
6463;SDS011;3265;42.694;23.282;2024-01-27T02:53:51;8.60;;;3.20;;
6463;SDS011;3265;42.694;23.282;2024-01-27T02:56:18;7.37;;;2.80;;
6463;SDS011;3265;42.694;23.282;2024-01-27T02:58:46;6.30;;;2.87;;
6463;SDS011;3265;42.694;23.282;2024-01-27T03:01:13;6.87;;;3.00;;
6463;SDS011;3265;42.694;23.282;2024-01-27T03:03:40;7.23;;;3.57;;
6463;SDS011;3265;42.694;23.282;2024-01-27T03:06:08;6.23;;;3.17;;
6463;SDS011;3265;42.694;23.282;2024-01-27T03:08:35;7.47;;;3.80;;
6463;SDS011;3265;42.694;23.282;2024-01-27T03:11:04;10.27;;;4.23;;
6463;SDS011;3265;42.694;23.282;2024-01-27T03:13:31;7.27;;;3.60;;
6463;SDS011;3265;42.694;23.282;2024-01-27T03:16:00;7.87;;;3.23;;
6463;SDS011;3265;42.694;23.282;2024-01-27T03:18:26;4.47;;;2.83;;
6463;SDS011;3265;42.694;23.282;2024-01-27T03:20:53;7.30;;;3.70;;
6463;SDS011;3265;42.694;23.282;2024-01-27T03:23:20;9.20;;;3.80;;
6463;SDS011;3265;42.694;23.282;2024-01-27T03:25:47;8.13;;;3.60;;
6463;SDS011;3265;42.694;23.282;2024-01-27T03:28:14;8.47;;;4.07;;
6463;SDS011;3265;42.694;23.282;2024-01-27T03:30:41;8.60;;;4.27;;
6463;SDS011;3265;42.694;23.282;2024-01-27T03:33:09;7.63;;;3.97;;
6463;SDS011;3265;42.694;23.282;2024-01-27T03:35:37;6.40;;;3.80;;
6463;SDS011;3265;42.694;23.282;2024-01-27T03:38:05;9.90;;;4.30;;
6463;SDS011;3265;42.694;23.282;2024-01-27T03:40:33;10.10;;;4.57;;
6463;SDS011;3265;42.694;23.282;2024-01-27T03:42:59;7.57;;;3.87;;
6463;SDS011;3265;42.694;23.282;2024-01-27T03:45:29;9.60;;;4.00;;
6463;SDS011;3265;42.694;23.282;2024-01-27T03:47:56;7.03;;;4.30;;
6463;SDS011;3265;42.694;23.282;2024-01-27T03:50:24;10.90;;;5.17;;
6463;SDS011;3265;42.694;23.282;2024-01-27T03:52:51;8.33;;;4.10;;
6463;SDS011;3265;42.694;23.282;2024-01-27T03:55:18;9.13;;;5.00;;
6463;SDS011;3265;42.694;23.282;2024-01-27T03:57:45;9.53;;;4.20;;
6463;SDS011;3265;42.694;23.282;2024-01-27T04:00:12;8.27;;;4.10;;
6463;SDS011;3265;42.694;23.282;2024-01-27T04:02:41;9.67;;;3.70;;
6463;SDS011;3265;42.694;23.282;2024-01-27T04:05:08;9.90;;;4.20;;
6463;SDS011;3265;42.694;23.282;2024-01-27T04:07:36;5.23;;;3.27;;
6463;SDS011;3265;42.694;23.282;2024-01-27T04:10:03;8.00;;;4.17;;
6463;SDS011;3265;42.694;23.282;2024-01-27T04:12:33;8.20;;;4.03;;
6463;SDS011;3265;42.694;23.282;2024-01-27T04:14:59;7.83;;;4.60;;
6463;SDS011;3265;42.694;23.282;2024-01-27T04:17:27;7.43;;;4.20;;
6463;SDS011;3265;42.694;23.282;2024-01-27T04:19:57;8.77;;;4.90;;
6463;SDS011;3265;42.694;23.282;2024-01-27T04:22:24;12.63;;;5.43;;
6463;SDS011;3265;42.694;23.282;2024-01-27T04:24:55;10.17;;;5.33;;
6463;SDS011;3265;42.694;23.282;2024-01-27T04:27:22;12.43;;;5.07;;
6463;SDS011;3265;42.694;23.282;2024-01-27T04:29:49;11.50;;;6.00;;
6463;SDS011;3265;42.694;23.282;2024-01-27T04:32:16;10.30;;;5.30;;
6463;SDS011;3265;42.694;23.282;2024-01-27T04:34:43;13.03;;;5.50;;
6463;SDS011;3265;42.694;23.282;2024-01-27T04:37:09;12.30;;;5.67;;
6463;SDS011;3265;42.694;23.282;2024-01-27T04:39:37;11.93;;;5.50;;
6463;SDS011;3265;42.694;23.282;2024-01-27T04:42:06;9.03;;;4.97;;
6463;SDS011;3265;42.694;23.282;2024-01-27T04:44:34;8.30;;;3.80;;
6463;SDS011;3265;42.694;23.282;2024-01-27T04:47:01;7.50;;;4.30;;
6463;SDS011;3265;42.694;23.282;2024-01-27T04:49:28;7.80;;;4.40;;
6463;SDS011;3265;42.694;23.282;2024-01-27T04:51:55;15.80;;;5.90;;
6463;SDS011;3265;42.694;23.282;2024-01-27T04:54:24;10.23;;;5.03;;
6463;SDS011;3265;42.694;23.282;2024-01-27T04:56:51;12.27;;;5.40;;
6463;SDS011;3265;42.694;23.282;2024-01-27T04:59:19;8.37;;;3.93;;
6463;SDS011;3265;42.694;23.282;2024-01-27T05:01:47;9.83;;;4.17;;
6463;SDS011;3265;42.694;23.282;2024-01-27T05:04:13;7.53;;;4.00;;
6463;SDS011;3265;42.694;23.282;2024-01-27T05:06:43;7.47;;;4.20;;
6463;SDS011;3265;42.694;23.282;2024-01-27T05:09:10;7.40;;;4.43;;
6463;SDS011;3265;42.694;23.282;2024-01-27T05:11:37;7.97;;;4.40;;
6463;SDS011;3265;42.694;23.282;2024-01-27T05:14:04;10.00;;;4.63;;
6463;SDS011;3265;42.694;23.282;2024-01-27T05:16:34;7.57;;;4.30;;
6463;SDS011;3265;42.694;23.282;2024-01-27T05:19:00;11.47;;;4.57;;
6463;SDS011;3265;42.694;23.282;2024-01-27T05:21:27;7.60;;;4.30;;
6463;SDS011;3265;42.694;23.282;2024-01-27T05:23:54;9.53;;;5.23;;
6463;SDS011;3265;42.694;23.282;2024-01-27T05:26:21;10.50;;;4.87;;
6463;SDS011;3265;42.694;23.282;2024-01-27T05:28:57;10.07;;;4.67;;
6463;SDS011;3265;42.694;23.282;2024-01-27T05:31:25;9.27;;;4.37;;
6463;SDS011;3265;42.694;23.282;2024-01-27T05:33:53;9.40;;;4.83;;
6463;SDS011;3265;42.694;23.282;2024-01-27T05:36:20;7.33;;;4.20;;
6463;SDS011;3265;42.694;23.282;2024-01-27T05:39:16;11.13;;;5.00;;
6463;SDS011;3265;42.694;23.282;2024-01-27T05:42:12;13.43;;;6.17;;
6463;SDS011;3265;42.694;23.282;2024-01-27T05:44:39;15.50;;;6.80;;
6463;SDS011;3265;42.694;23.282;2024-01-27T05:47:06;14.53;;;7.00;;
6463;SDS011;3265;42.694;23.282;2024-01-27T05:49:37;14.43;;;7.17;;
6463;SDS011;3265;42.694;23.282;2024-01-27T05:52:04;12.83;;;6.30;;
6463;SDS011;3265;42.694;23.282;2024-01-27T05:54:31;13.40;;;5.33;;
6463;SDS011;3265;42.694;23.282;2024-01-27T05:56:58;12.73;;;5.70;;
6463;SDS011;3265;42.694;23.282;2024-01-27T05:59:25;11.93;;;6.17;;
6463;SDS011;3265;42.694;23.282;2024-01-27T06:01:52;15.03;;;7.10;;
6463;SDS011;3265;42.694;23.282;2024-01-27T06:04:22;11.10;;;6.23;;
6463;SDS011;3265;42.694;23.282;2024-01-27T06:06:50;9.70;;;4.93;;
6463;SDS011;3265;42.694;23.282;2024-01-27T06:09:29;9.93;;;5.40;;
6463;SDS011;3265;42.694;23.282;2024-01-27T06:11:58;10.17;;;5.70;;
6463;SDS011;3265;42.694;23.282;2024-01-27T06:14:35;15.67;;;8.13;;
6463;SDS011;3265;42.694;23.282;2024-01-27T06:17:03;14.90;;;7.57;;
6463;SDS011;3265;42.694;23.282;2024-01-27T06:19:32;12.87;;;6.53;;
6463;SDS011;3265;42.694;23.282;2024-01-27T06:22:08;11.77;;;5.60;;
6463;SDS011;3265;42.694;23.282;2024-01-27T06:24:41;10.37;;;5.50;;
6463;SDS011;3265;42.694;23.282;2024-01-27T06:27:08;12.23;;;6.60;;
6463;SDS011;3265;42.694;23.282;2024-01-27T06:29:35;15.07;;;6.23;;
6463;SDS011;3265;42.694;23.282;2024-01-27T06:32:02;11.20;;;5.93;;
6463;SDS011;3265;42.694;23.282;2024-01-27T06:34:29;10.60;;;5.63;;
6463;SDS011;3265;42.694;23.282;2024-01-27T06:36:58;10.10;;;4.83;;
6463;SDS011;3265;42.694;23.282;2024-01-27T06:39:26;8.37;;;4.83;;
6463;SDS011;3265;42.694;23.282;2024-01-27T06:41:54;8.57;;;5.03;;
6463;SDS011;3265;42.694;23.282;2024-01-27T06:44:21;9.97;;;5.47;;
6463;SDS011;3265;42.694;23.282;2024-01-27T06:46:48;11.57;;;6.10;;
6463;SDS011;3265;42.694;23.282;2024-01-27T06:49:16;7.90;;;5.20;;
6463;SDS011;3265;42.694;23.282;2024-01-27T06:51:43;6.83;;;4.70;;
6463;SDS011;3265;42.694;23.282;2024-01-27T06:54:10;8.00;;;4.73;;
6463;SDS011;3265;42.694;23.282;2024-01-27T06:56:38;5.80;;;3.53;;
6463;SDS011;3265;42.694;23.282;2024-01-27T06:59:05;6.73;;;4.43;;
6463;SDS011;3265;42.694;23.282;2024-01-27T07:01:32;5.87;;;3.60;;
6463;SDS011;3265;42.694;23.282;2024-01-27T07:03:59;5.17;;;3.13;;
6463;SDS011;3265;42.694;23.282;2024-01-27T07:06:26;7.23;;;3.17;;
6463;SDS011;3265;42.694;23.282;2024-01-27T07:08:53;6.70;;;3.93;;
6463;SDS011;3265;42.694;23.282;2024-01-27T07:11:20;7.93;;;4.37;;
6463;SDS011;3265;42.694;23.282;2024-01-27T07:13:48;7.47;;;4.40;;
6463;SDS011;3265;42.694;23.282;2024-01-27T07:16:15;7.10;;;4.17;;
6463;SDS011;3265;42.694;23.282;2024-01-27T07:18:42;6.37;;;3.93;;
6463;SDS011;3265;42.694;23.282;2024-01-27T07:21:14;7.60;;;3.80;;
6463;SDS011;3265;42.694;23.282;2024-01-27T07:23:41;7.63;;;4.43;;
6463;SDS011;3265;42.694;23.282;2024-01-27T07:26:09;8.57;;;3.63;;
6463;SDS011;3265;42.694;23.282;2024-01-27T07:28:36;8.53;;;4.73;;
6463;SDS011;3265;42.694;23.282;2024-01-27T07:31:04;7.63;;;4.60;;
6463;SDS011;3265;42.694;23.282;2024-01-27T07:33:32;8.27;;;4.30;;
6463;SDS011;3265;42.694;23.282;2024-01-27T07:35:58;8.80;;;4.50;;
6463;SDS011;3265;42.694;23.282;2024-01-27T07:41:01;4.53;;;3.40;;
6463;SDS011;3265;42.694;23.282;2024-01-27T07:43:27;5.87;;;3.80;;
6463;SDS011;3265;42.694;23.282;2024-01-27T07:45:54;6.53;;;4.20;;
6463;SDS011;3265;42.694;23.282;2024-01-27T07:48:23;6.23;;;3.50;;
6463;SDS011;3265;42.694;23.282;2024-01-27T07:50:49;4.50;;;3.40;;
6463;SDS011;3265;42.694;23.282;2024-01-27T07:53:16;5.43;;;3.60;;
6463;SDS011;3265;42.694;23.282;2024-01-27T07:55:43;5.73;;;3.30;;
6463;SDS011;3265;42.694;23.282;2024-01-27T07:58:10;5.40;;;3.70;;
6463;SDS011;3265;42.694;23.282;2024-01-27T08:00:37;4.70;;;3.43;;
6463;SDS011;3265;42.694;23.282;2024-01-27T08:03:04;5.47;;;4.33;;
6463;SDS011;3265;42.694;23.282;2024-01-27T08:05:32;7.57;;;4.37;;
6463;SDS011;3265;42.694;23.282;2024-01-27T08:07:59;8.07;;;4.70;;
6463;SDS011;3265;42.694;23.282;2024-01-27T08:10:26;8.67;;;5.00;;
6463;SDS011;3265;42.694;23.282;2024-01-27T08:12:53;9.10;;;5.47;;
6463;SDS011;3265;42.694;23.282;2024-01-27T08:15:20;10.47;;;5.90;;
6463;SDS011;3265;42.694;23.282;2024-01-27T08:17:47;6.77;;;4.43;;
6463;SDS011;3265;42.694;23.282;2024-01-27T08:20:13;10.07;;;5.40;;
6463;SDS011;3265;42.694;23.282;2024-01-27T08:22:42;9.67;;;5.07;;
6463;SDS011;3265;42.694;23.282;2024-01-27T08:25:09;9.53;;;5.03;;
6463;SDS011;3265;42.694;23.282;2024-01-27T08:27:35;9.27;;;5.30;;
6463;SDS011;3265;42.694;23.282;2024-01-27T08:30:03;12.53;;;5.37;;
6463;SDS011;3265;42.694;23.282;2024-01-27T08:32:32;10.17;;;5.70;;
6463;SDS011;3265;42.694;23.282;2024-01-27T08:34:59;10.30;;;4.50;;
6463;SDS011;3265;42.694;23.282;2024-01-27T08:37:27;11.70;;;6.60;;
6463;SDS011;3265;42.694;23.282;2024-01-27T08:39:56;9.87;;;5.70;;
6463;SDS011;3265;42.694;23.282;2024-01-27T08:42:23;7.30;;;4.43;;
6463;SDS011;3265;42.694;23.282;2024-01-27T08:44:50;7.00;;;4.70;;
6463;SDS011;3265;42.694;23.282;2024-01-27T08:47:17;8.17;;;5.33;;
6463;SDS011;3265;42.694;23.282;2024-01-27T08:49:44;9.03;;;4.90;;
6463;SDS011;3265;42.694;23.282;2024-01-27T08:52:11;6.10;;;4.27;;
6463;SDS011;3265;42.694;23.282;2024-01-27T08:54:38;5.83;;;4.10;;
6463;SDS011;3265;42.694;23.282;2024-01-27T08:57:07;4.13;;;3.47;;
6463;SDS011;3265;42.694;23.282;2024-01-27T08:59:34;6.90;;;4.40;;
6463;SDS011;3265;42.694;23.282;2024-01-27T09:02:02;8.17;;;4.70;;
6463;SDS011;3265;42.694;23.282;2024-01-27T09:04:30;12.10;;;5.70;;
6463;SDS011;3265;42.694;23.282;2024-01-27T09:06:58;6.50;;;4.60;;
6463;SDS011;3265;42.694;23.282;2024-01-27T09:09:25;8.10;;;4.33;;
6463;SDS011;3265;42.694;23.282;2024-01-27T09:11:54;8.00;;;5.27;;
6463;SDS011;3265;42.694;23.282;2024-01-27T09:14:22;7.00;;;4.47;;
6463;SDS011;3265;42.694;23.282;2024-01-27T09:16:49;6.03;;;4.30;;
6463;SDS011;3265;42.694;23.282;2024-01-27T09:19:17;6.33;;;4.30;;
6463;SDS011;3265;42.694;23.282;2024-01-27T09:21:44;7.50;;;5.23;;
6463;SDS011;3265;42.694;23.282;2024-01-27T09:24:11;6.43;;;4.17;;
6463;SDS011;3265;42.694;23.282;2024-01-27T09:26:38;8.20;;;5.60;;
6463;SDS011;3265;42.694;23.282;2024-01-27T09:29:06;8.87;;;5.27;;
6463;SDS011;3265;42.694;23.282;2024-01-27T09:34:07;7.33;;;4.30;;
6463;SDS011;3265;42.694;23.282;2024-01-27T09:36:34;8.23;;;4.87;;
6463;SDS011;3265;42.694;23.282;2024-01-27T09:39:02;8.13;;;4.73;;
6463;SDS011;3265;42.694;23.282;2024-01-27T09:41:30;6.03;;;4.40;;
6463;SDS011;3265;42.694;23.282;2024-01-27T09:43:59;5.37;;;4.30;;
6463;SDS011;3265;42.694;23.282;2024-01-27T09:46:28;7.60;;;4.60;;
6463;SDS011;3265;42.694;23.282;2024-01-27T09:48:56;6.90;;;4.10;;
6463;SDS011;3265;42.694;23.282;2024-01-27T09:54:34;7.83;;;4.43;;
6463;SDS011;3265;42.694;23.282;2024-01-27T09:57:01;7.10;;;4.93;;
6463;SDS011;3265;42.694;23.282;2024-01-27T09:59:28;7.30;;;4.03;;
6463;SDS011;3265;42.694;23.282;2024-01-27T10:01:56;5.50;;;3.40;;
6463;SDS011;3265;42.694;23.282;2024-01-27T10:04:24;6.47;;;4.90;;
6463;SDS011;3265;42.694;23.282;2024-01-27T10:06:52;5.43;;;4.27;;
6463;SDS011;3265;42.694;23.282;2024-01-27T10:09:18;7.00;;;4.30;;
6463;SDS011;3265;42.694;23.282;2024-01-27T10:11:47;7.40;;;4.50;;
6463;SDS011;3265;42.694;23.282;2024-01-27T10:14:14;6.37;;;4.30;;
6463;SDS011;3265;42.694;23.282;2024-01-27T10:16:41;5.43;;;4.03;;
6463;SDS011;3265;42.694;23.282;2024-01-27T10:19:11;7.73;;;5.77;;
6463;SDS011;3265;42.694;23.282;2024-01-27T10:21:41;8.10;;;5.77;;
6463;SDS011;3265;42.694;23.282;2024-01-27T10:24:08;8.23;;;5.63;;
6463;SDS011;3265;42.694;23.282;2024-01-27T10:26:35;6.80;;;4.77;;
6463;SDS011;3265;42.694;23.282;2024-01-27T10:29:04;6.63;;;4.37;;
6463;SDS011;3265;42.694;23.282;2024-01-27T10:31:34;10.53;;;5.00;;
6463;SDS011;3265;42.694;23.282;2024-01-27T10:34:02;6.57;;;4.60;;
6463;SDS011;3265;42.694;23.282;2024-01-27T10:36:40;8.20;;;4.70;;
6463;SDS011;3265;42.694;23.282;2024-01-27T10:39:14;8.50;;;5.10;;
6463;SDS011;3265;42.694;23.282;2024-01-27T10:41:43;9.10;;;5.47;;
6463;SDS011;3265;42.694;23.282;2024-01-27T10:44:15;6.87;;;4.47;;
6463;SDS011;3265;42.694;23.282;2024-01-27T10:46:43;6.43;;;4.17;;
6463;SDS011;3265;42.694;23.282;2024-01-27T10:49:12;6.33;;;4.27;;
6463;SDS011;3265;42.694;23.282;2024-01-27T10:51:43;7.03;;;4.20;;
6463;SDS011;3265;42.694;23.282;2024-01-27T10:54:13;6.50;;;4.60;;
6463;SDS011;3265;42.694;23.282;2024-01-27T10:56:42;10.60;;;5.97;;
6463;SDS011;3265;42.694;23.282;2024-01-27T10:59:10;7.43;;;4.60;;
6463;SDS011;3265;42.694;23.282;2024-01-27T11:01:41;6.57;;;4.73;;
6463;SDS011;3265;42.694;23.282;2024-01-27T11:04:10;7.97;;;5.20;;
6463;SDS011;3265;42.694;23.282;2024-01-27T11:06:39;7.67;;;4.77;;
6463;SDS011;3265;42.694;23.282;2024-01-27T11:09:09;5.83;;;4.80;;
6463;SDS011;3265;42.694;23.282;2024-01-27T11:11:38;6.33;;;4.90;;
6463;SDS011;3265;42.694;23.282;2024-01-27T11:14:06;10.97;;;5.87;;
6463;SDS011;3265;42.694;23.282;2024-01-27T11:16:36;7.70;;;5.00;;
6463;SDS011;3265;42.694;23.282;2024-01-27T11:19:09;4.30;;;3.83;;
6463;SDS011;3265;42.694;23.282;2024-01-27T11:21:37;5.47;;;4.30;;
6463;SDS011;3265;42.694;23.282;2024-01-27T11:24:12;6.07;;;4.73;;
6463;SDS011;3265;42.694;23.282;2024-01-27T11:26:39;8.23;;;5.67;;
6463;SDS011;3265;42.694;23.282;2024-01-27T11:29:06;7.37;;;5.57;;
6463;SDS011;3265;42.694;23.282;2024-01-27T11:31:34;10.77;;;6.77;;
6463;SDS011;3265;42.694;23.282;2024-01-27T11:34:01;7.53;;;4.57;;
6463;SDS011;3265;42.694;23.282;2024-01-27T11:36:32;7.10;;;5.27;;
6463;SDS011;3265;42.694;23.282;2024-01-27T11:39:00;8.33;;;5.53;;
6463;SDS011;3265;42.694;23.282;2024-01-27T11:41:29;7.53;;;5.23;;
6463;SDS011;3265;42.694;23.282;2024-01-27T11:44:03;6.67;;;4.50;;
6463;SDS011;3265;42.694;23.282;2024-01-27T11:49:54;8.20;;;4.50;;
6463;SDS011;3265;42.694;23.282;2024-01-27T11:59:06;7.40;;;4.70;;
6463;SDS011;3265;42.694;23.282;2024-01-27T12:01:35;5.83;;;4.60;;
6463;SDS011;3265;42.694;23.282;2024-01-27T12:04:17;6.40;;;5.23;;
6463;SDS011;3265;42.694;23.282;2024-01-27T12:07:00;10.50;;;6.67;;
6463;SDS011;3265;42.694;23.282;2024-01-27T12:09:41;15.63;;;6.73;;
6463;SDS011;3265;42.694;23.282;2024-01-27T12:12:11;10.17;;;6.63;;
6463;SDS011;3265;42.694;23.282;2024-01-27T12:15:02;6.40;;;4.43;;
6463;SDS011;3265;42.694;23.282;2024-01-27T12:26:15;5.37;;;4.60;;
6463;SDS011;3265;42.694;23.282;2024-01-27T12:57:35;3.73;;;3.27;;
6463;SDS011;3265;42.694;23.282;2024-01-27T13:00:09;3.70;;;3.00;;
6463;SDS011;3265;42.694;23.282;2024-01-27T13:02:58;7.20;;;3.50;;
6463;SDS011;3265;42.694;23.282;2024-01-27T13:05:48;2.87;;;2.53;;
6463;SDS011;3265;42.694;23.282;2024-01-27T13:08:45;5.70;;;3.77;;
6463;SDS011;3265;42.694;23.282;2024-01-27T13:11:14;3.90;;;3.17;;
6463;SDS011;3265;42.694;23.282;2024-01-27T13:16:54;3.57;;;3.10;;
6463;SDS011;3265;42.694;23.282;2024-01-27T13:19:25;4.07;;;3.03;;
6463;SDS011;3265;42.694;23.282;2024-01-27T13:21:52;5.47;;;3.83;;
6463;SDS011;3265;42.694;23.282;2024-01-27T13:24:19;6.57;;;4.30;;
6463;SDS011;3265;42.694;23.282;2024-01-27T13:26:46;8.83;;;4.60;;
6463;SDS011;3265;42.694;23.282;2024-01-27T13:29:15;5.87;;;4.37;;
6463;SDS011;3265;42.694;23.282;2024-01-27T13:31:43;4.23;;;3.50;;
6463;SDS011;3265;42.694;23.282;2024-01-27T13:34:22;9.10;;;5.40;;
6463;SDS011;3265;42.694;23.282;2024-01-27T13:36:50;6.50;;;3.33;;
6463;SDS011;3265;42.694;23.282;2024-01-27T13:39:23;5.97;;;3.90;;
6463;SDS011;3265;42.694;23.282;2024-01-27T13:41:50;10.27;;;5.93;;
6463;SDS011;3265;42.694;23.282;2024-01-27T13:44:18;9.80;;;5.70;;
6463;SDS011;3265;42.694;23.282;2024-01-27T13:46:45;18.87;;;10.10;;
6463;SDS011;3265;42.694;23.282;2024-01-27T13:49:12;8.57;;;5.87;;
6463;SDS011;3265;42.694;23.282;2024-01-27T13:51:39;8.37;;;5.13;;
6463;SDS011;3265;42.694;23.282;2024-01-27T13:54:06;9.60;;;5.13;;
6463;SDS011;3265;42.694;23.282;2024-01-27T13:56:34;6.43;;;4.23;;
6463;SDS011;3265;42.694;23.282;2024-01-27T13:59:01;9.13;;;5.20;;
6463;SDS011;3265;42.694;23.282;2024-01-27T14:01:33;17.03;;;10.30;;
6463;SDS011;3265;42.694;23.282;2024-01-27T14:04:00;17.63;;;10.40;;
6463;SDS011;3265;42.694;23.282;2024-01-27T14:06:27;13.53;;;7.17;;
6463;SDS011;3265;42.694;23.282;2024-01-27T14:08:54;10.93;;;6.03;;
6463;SDS011;3265;42.694;23.282;2024-01-27T14:11:21;18.00;;;9.00;;
6463;SDS011;3265;42.694;23.282;2024-01-27T14:13:51;15.00;;;8.93;;
6463;SDS011;3265;42.694;23.282;2024-01-27T14:16:18;20.50;;;10.77;;
6463;SDS011;3265;42.694;23.282;2024-01-27T14:18:47;15.87;;;7.20;;
6463;SDS011;3265;42.694;23.282;2024-01-27T14:21:14;10.10;;;5.40;;
6463;SDS011;3265;42.694;23.282;2024-01-27T14:23:41;11.43;;;6.07;;
6463;SDS011;3265;42.694;23.282;2024-01-27T14:26:08;11.77;;;7.57;;
6463;SDS011;3265;42.694;23.282;2024-01-27T14:28:39;14.90;;;7.50;;
6463;SDS011;3265;42.694;23.282;2024-01-27T14:31:06;10.87;;;6.10;;
6463;SDS011;3265;42.694;23.282;2024-01-27T14:33:33;15.20;;;7.97;;
6463;SDS011;3265;42.694;23.282;2024-01-27T14:36:01;9.00;;;4.47;;
6463;SDS011;3265;42.694;23.282;2024-01-27T14:38:29;5.97;;;3.63;;
6463;SDS011;3265;42.694;23.282;2024-01-27T14:40:56;8.73;;;3.43;;
6463;SDS011;3265;42.694;23.282;2024-01-27T14:43:23;9.97;;;5.20;;
6463;SDS011;3265;42.694;23.282;2024-01-27T14:45:51;9.47;;;4.50;;
6463;SDS011;3265;42.694;23.282;2024-01-27T14:48:18;5.87;;;4.13;;
6463;SDS011;3265;42.694;23.282;2024-01-27T14:50:45;9.27;;;3.60;;
6463;SDS011;3265;42.694;23.282;2024-01-27T14:53:25;8.77;;;4.63;;
6463;SDS011;3265;42.694;23.282;2024-01-27T14:55:57;8.83;;;4.83;;
6463;SDS011;3265;42.694;23.282;2024-01-27T14:58:44;7.00;;;4.03;;
6463;SDS011;3265;42.694;23.282;2024-01-27T15:01:25;16.70;;;5.80;;
6463;SDS011;3265;42.694;23.282;2024-01-27T15:03:52;6.37;;;3.60;;
6463;SDS011;3265;42.694;23.282;2024-01-27T15:06:19;4.93;;;3.63;;
6463;SDS011;3265;42.694;23.282;2024-01-27T15:08:48;3.83;;;3.07;;
6463;SDS011;3265;42.694;23.282;2024-01-27T15:11:21;6.60;;;3.73;;
6463;SDS011;3265;42.694;23.282;2024-01-27T15:14:15;7.20;;;3.67;;
6463;SDS011;3265;42.694;23.282;2024-01-27T15:16:46;7.80;;;3.20;;
6463;SDS011;3265;42.694;23.282;2024-01-27T15:19:31;8.07;;;3.90;;
6463;SDS011;3265;42.694;23.282;2024-01-27T15:36:17;11.60;;;5.50;;
6463;SDS011;3265;42.694;23.282;2024-01-27T15:38:45;8.27;;;4.63;;
6463;SDS011;3265;42.694;23.282;2024-01-27T15:41:12;11.23;;;5.90;;
6463;SDS011;3265;42.694;23.282;2024-01-27T15:43:41;7.27;;;4.53;;
6463;SDS011;3265;42.694;23.282;2024-01-27T15:46:12;7.00;;;4.00;;
6463;SDS011;3265;42.694;23.282;2024-01-27T15:48:44;11.13;;;5.17;;
6463;SDS011;3265;42.694;23.282;2024-01-27T15:51:12;9.43;;;4.93;;
6463;SDS011;3265;42.694;23.282;2024-01-27T15:53:40;6.00;;;4.00;;
6463;SDS011;3265;42.694;23.282;2024-01-27T15:56:09;5.80;;;3.67;;
6463;SDS011;3265;42.694;23.282;2024-01-27T15:58:56;7.40;;;4.23;;
6463;SDS011;3265;42.694;23.282;2024-01-27T16:01:22;10.43;;;4.57;;
6463;SDS011;3265;42.694;23.282;2024-01-27T16:04:03;5.80;;;3.40;;
6463;SDS011;3265;42.694;23.282;2024-01-27T16:12:01;11.30;;;5.40;;
6463;SDS011;3265;42.694;23.282;2024-01-27T16:14:41;11.03;;;5.27;;
6463;SDS011;3265;42.694;23.282;2024-01-27T16:17:29;7.83;;;3.80;;
6463;SDS011;3265;42.694;23.282;2024-01-27T16:34:43;9.57;;;4.20;;
6463;SDS011;3265;42.694;23.282;2024-01-27T16:45:44;7.77;;;5.03;;
6463;SDS011;3265;42.694;23.282;2024-01-27T16:48:55;5.93;;;3.50;;
6463;SDS011;3265;42.694;23.282;2024-01-27T16:55:04;5.83;;;3.43;;
6463;SDS011;3265;42.694;23.282;2024-01-27T16:57:31;10.67;;;5.83;;